sensor_id;sensor_type;location;lat;lon;timestamp;P1;durP1;ratioP1;P2;durP2;ratioP2
10078;SDS011;5078;42.544;22.966;2023-07-08T00:01:59;18.30;;;16.40;;
10078;SDS011;5078;42.544;22.966;2023-07-08T00:04:27;19.63;;;17.73;;
10078;SDS011;5078;42.544;22.966;2023-07-08T00:06:53;18.85;;;17.05;;
10078;SDS011;5078;42.544;22.966;2023-07-08T00:09:20;20.05;;;18.15;;
10078;SDS011;5078;42.544;22.966;2023-07-08T00:11:47;21.85;;;19.15;;
10078;SDS011;5078;42.544;22.966;2023-07-08T00:14:13;21.30;;;19.20;;
10078;SDS011;5078;42.544;22.966;2023-07-08T00:16:40;21.65;;;19.65;;
10078;SDS011;5078;42.544;22.966;2023-07-08T00:19:08;21.05;;;19.02;;
10078;SDS011;5078;42.544;22.966;2023-07-08T00:21:37;20.92;;;18.95;;
10078;SDS011;5078;42.544;22.966;2023-07-08T00:24:03;17.27;;;15.75;;
10078;SDS011;5078;42.544;22.966;2023-07-08T00:26:31;15.75;;;14.25;;
10078;SDS011;5078;42.544;22.966;2023-07-08T00:28:58;15.82;;;14.30;;
10078;SDS011;5078;42.544;22.966;2023-07-08T00:31:24;17.15;;;15.30;;
10078;SDS011;5078;42.544;22.966;2023-07-08T00:33:52;15.48;;;14.05;;
10078;SDS011;5078;42.544;22.966;2023-07-08T00:36:20;15.93;;;14.43;;
10078;SDS011;5078;42.544;22.966;2023-07-08T00:38:50;16.00;;;14.50;;
10078;SDS011;5078;42.544;22.966;2023-07-08T00:41:18;15.90;;;14.40;;
10078;SDS011;5078;42.544;22.966;2023-07-08T00:43:49;17.20;;;15.52;;
10078;SDS011;5078;42.544;22.966;2023-07-08T00:46:25;17.58;;;15.88;;
10078;SDS011;5078;42.544;22.966;2023-07-08T00:48:59;22.92;;;16.48;;
10078;SDS011;5078;42.544;22.966;2023-07-08T00:51:30;21.80;;;15.88;;
10078;SDS011;5078;42.544;22.966;2023-07-08T00:53:58;18.08;;;16.38;;
10078;SDS011;5078;42.544;22.966;2023-07-08T00:56:25;19.33;;;17.38;;
10078;SDS011;5078;42.544;22.966;2023-07-08T00:58:55;17.92;;;16.33;;
10078;SDS011;5078;42.544;22.966;2023-07-08T01:01:26;18.85;;;17.10;;
10078;SDS011;5078;42.544;22.966;2023-07-08T01:03:56;18.42;;;16.65;;
10078;SDS011;5078;42.544;22.966;2023-07-08T01:06:26;18.38;;;16.67;;
10078;SDS011;5078;42.544;22.966;2023-07-08T01:08:58;18.83;;;16.77;;
10078;SDS011;5078;42.544;22.966;2023-07-08T01:11:27;18.80;;;16.98;;
10078;SDS011;5078;42.544;22.966;2023-07-08T01:13:55;17.67;;;15.98;;
10078;SDS011;5078;42.544;22.966;2023-07-08T01:16:23;19.50;;;17.60;;
10078;SDS011;5078;42.544;22.966;2023-07-08T01:18:50;19.63;;;17.58;;
10078;SDS011;5078;42.544;22.966;2023-07-08T01:21:29;18.50;;;16.80;;
10078;SDS011;5078;42.544;22.966;2023-07-08T01:24:00;20.17;;;17.58;;
10078;SDS011;5078;42.544;22.966;2023-07-08T01:26:29;20.05;;;17.10;;
10078;SDS011;5078;42.544;22.966;2023-07-08T01:28:57;19.75;;;17.75;;
10078;SDS011;5078;42.544;22.966;2023-07-08T01:31:24;20.13;;;18.02;;
10078;SDS011;5078;42.544;22.966;2023-07-08T01:33:51;19.80;;;17.70;;
10078;SDS011;5078;42.544;22.966;2023-07-08T01:36:19;18.42;;;16.70;;
10078;SDS011;5078;42.544;22.966;2023-07-08T01:38:47;17.38;;;15.75;;
10078;SDS011;5078;42.544;22.966;2023-07-08T01:41:16;19.33;;;17.25;;
10078;SDS011;5078;42.544;22.966;2023-07-08T01:43:43;18.73;;;16.92;;
10078;SDS011;5078;42.544;22.966;2023-07-08T01:46:11;17.77;;;16.10;;
10078;SDS011;5078;42.544;22.966;2023-07-08T01:48:41;16.88;;;15.10;;
10078;SDS011;5078;42.544;22.966;2023-07-08T01:51:15;17.33;;;15.52;;
10078;SDS011;5078;42.544;22.966;2023-07-08T01:53:42;17.50;;;15.73;;
10078;SDS011;5078;42.544;22.966;2023-07-08T01:56:10;17.83;;;16.02;;
10078;SDS011;5078;42.544;22.966;2023-07-08T01:58:39;17.98;;;16.30;;
10078;SDS011;5078;42.544;22.966;2023-07-08T02:01:06;17.45;;;15.75;;
10078;SDS011;5078;42.544;22.966;2023-07-08T02:03:34;17.83;;;16.20;;
10078;SDS011;5078;42.544;22.966;2023-07-08T02:06:01;19.20;;;17.40;;
10078;SDS011;5078;42.544;22.966;2023-07-08T02:08:28;18.63;;;16.83;;
10078;SDS011;5078;42.544;22.966;2023-07-08T02:10:56;18.33;;;16.48;;
10078;SDS011;5078;42.544;22.966;2023-07-08T02:13:24;18.35;;;16.58;;
10078;SDS011;5078;42.544;22.966;2023-07-08T02:15:52;19.05;;;17.25;;
10078;SDS011;5078;42.544;22.966;2023-07-08T02:18:19;19.75;;;17.75;;
10078;SDS011;5078;42.544;22.966;2023-07-08T02:20:46;19.27;;;17.38;;
10078;SDS011;5078;42.544;22.966;2023-07-08T02:23:13;20.20;;;18.17;;
10078;SDS011;5078;42.544;22.966;2023-07-08T02:25:40;19.15;;;17.25;;
10078;SDS011;5078;42.544;22.966;2023-07-08T02:28:07;20.67;;;18.77;;
10078;SDS011;5078;42.544;22.966;2023-07-08T02:30:34;19.30;;;17.30;;
10078;SDS011;5078;42.544;22.966;2023-07-08T02:33:03;20.50;;;18.40;;
10078;SDS011;5078;42.544;22.966;2023-07-08T02:35:30;20.55;;;18.45;;
10078;SDS011;5078;42.544;22.966;2023-07-08T02:37:57;20.23;;;18.23;;
10078;SDS011;5078;42.544;22.966;2023-07-08T02:40:24;20.42;;;18.42;;
10078;SDS011;5078;42.544;22.966;2023-07-08T02:42:52;21.27;;;19.08;;
10078;SDS011;5078;42.544;22.966;2023-07-08T02:45:19;21.17;;;19.20;;
10078;SDS011;5078;42.544;22.966;2023-07-08T02:47:45;21.27;;;19.25;;
10078;SDS011;5078;42.544;22.966;2023-07-08T02:50:13;20.40;;;18.35;;
10078;SDS011;5078;42.544;22.966;2023-07-08T02:52:42;20.23;;;18.17;;
10078;SDS011;5078;42.544;22.966;2023-07-08T02:55:09;19.80;;;17.92;;
10078;SDS011;5078;42.544;22.966;2023-07-08T02:57:35;20.95;;;18.92;;
10078;SDS011;5078;42.544;22.966;2023-07-08T03:00:02;20.77;;;18.60;;
10078;SDS011;5078;42.544;22.966;2023-07-08T03:02:31;20.38;;;18.38;;
10078;SDS011;5078;42.544;22.966;2023-07-08T03:04:58;19.67;;;17.67;;
10078;SDS011;5078;42.544;22.966;2023-07-08T03:07:27;18.90;;;17.00;;
10078;SDS011;5078;42.544;22.966;2023-07-08T03:09:54;18.98;;;17.08;;
10078;SDS011;5078;42.544;22.966;2023-07-08T03:12:20;20.77;;;18.67;;
10078;SDS011;5078;42.544;22.966;2023-07-08T03:14:47;19.48;;;17.63;;
10078;SDS011;5078;42.544;22.966;2023-07-08T03:17:14;20.83;;;18.83;;
10078;SDS011;5078;42.544;22.966;2023-07-08T03:19:41;19.60;;;17.67;;
10078;SDS011;5078;42.544;22.966;2023-07-08T03:22:08;21.83;;;19.27;;
10078;SDS011;5078;42.544;22.966;2023-07-08T03:24:36;19.55;;;17.75;;
10078;SDS011;5078;42.544;22.966;2023-07-08T03:27:11;23.13;;;18.58;;
10078;SDS011;5078;42.544;22.966;2023-07-08T03:29:38;21.20;;;18.88;;
10078;SDS011;5078;42.544;22.966;2023-07-08T03:32:05;23.08;;;19.00;;
10078;SDS011;5078;42.544;22.966;2023-07-08T03:34:35;21.92;;;19.80;;
10078;SDS011;5078;42.544;22.966;2023-07-08T03:37:02;21.38;;;19.15;;
10078;SDS011;5078;42.544;22.966;2023-07-08T03:39:30;20.58;;;18.48;;
10078;SDS011;5078;42.544;22.966;2023-07-08T03:41:58;21.85;;;19.58;;
10078;SDS011;5078;42.544;22.966;2023-07-08T03:44:25;20.75;;;18.75;;
10078;SDS011;5078;42.544;22.966;2023-07-08T03:46:52;20.98;;;18.75;;
10078;SDS011;5078;42.544;22.966;2023-07-08T03:49:19;19.88;;;17.90;;
10078;SDS011;5078;42.544;22.966;2023-07-08T03:51:49;20.02;;;17.98;;
10078;SDS011;5078;42.544;22.966;2023-07-08T03:54:17;18.98;;;17.08;;
10078;SDS011;5078;42.544;22.966;2023-07-08T03:56:44;19.48;;;17.58;;
10078;SDS011;5078;42.544;22.966;2023-07-08T03:59:12;19.60;;;17.60;;
10078;SDS011;5078;42.544;22.966;2023-07-08T04:01:39;19.67;;;17.77;;
10078;SDS011;5078;42.544;22.966;2023-07-08T04:04:08;20.08;;;18.10;;
10078;SDS011;5078;42.544;22.966;2023-07-08T04:06:37;19.38;;;17.50;;
10078;SDS011;5078;42.544;22.966;2023-07-08T04:09:04;19.00;;;17.17;;
10078;SDS011;5078;42.544;22.966;2023-07-08T04:11:32;18.23;;;16.42;;
10078;SDS011;5078;42.544;22.966;2023-07-08T04:13:58;17.83;;;16.13;;
10078;SDS011;5078;42.544;22.966;2023-07-08T04:16:33;18.85;;;16.95;;
10078;SDS011;5078;42.544;22.966;2023-07-08T04:19:10;19.08;;;17.20;;
10078;SDS011;5078;42.544;22.966;2023-07-08T04:21:39;18.90;;;16.88;;
10078;SDS011;5078;42.544;22.966;2023-07-08T04:24:07;18.02;;;16.15;;
10078;SDS011;5078;42.544;22.966;2023-07-08T04:26:35;17.42;;;15.65;;
10078;SDS011;5078;42.544;22.966;2023-07-08T04:29:04;16.20;;;14.70;;
10078;SDS011;5078;42.544;22.966;2023-07-08T04:31:34;16.05;;;14.65;;
10078;SDS011;5078;42.544;22.966;2023-07-08T04:34:00;16.17;;;14.57;;
10078;SDS011;5078;42.544;22.966;2023-07-08T04:36:27;16.70;;;15.10;;
10078;SDS011;5078;42.544;22.966;2023-07-08T04:38:54;19.35;;;16.85;;
10078;SDS011;5078;42.544;22.966;2023-07-08T04:41:23;17.02;;;15.18;;
10078;SDS011;5078;42.544;22.966;2023-07-08T04:43:50;16.40;;;14.98;;
10078;SDS011;5078;42.544;22.966;2023-07-08T04:46:18;18.25;;;15.80;;
10078;SDS011;5078;42.544;22.966;2023-07-08T04:48:51;17.55;;;15.68;;
10078;SDS011;5078;42.544;22.966;2023-07-08T04:51:18;16.63;;;15.00;;
10078;SDS011;5078;42.544;22.966;2023-07-08T04:53:45;15.52;;;14.00;;
10078;SDS011;5078;42.544;22.966;2023-07-08T04:56:12;16.42;;;14.90;;
10078;SDS011;5078;42.544;22.966;2023-07-08T04:58:39;16.27;;;14.68;;
10078;SDS011;5078;42.544;22.966;2023-07-08T05:01:05;17.02;;;15.43;;
10078;SDS011;5078;42.544;22.966;2023-07-08T05:03:32;18.02;;;16.35;;
10078;SDS011;5078;42.544;22.966;2023-07-08T05:06:00;18.27;;;16.67;;
10078;SDS011;5078;42.544;22.966;2023-07-08T05:08:27;18.75;;;16.88;;
10078;SDS011;5078;42.544;22.966;2023-07-08T05:10:55;17.48;;;15.77;;
10078;SDS011;5078;42.544;22.966;2023-07-08T05:13:22;16.10;;;14.50;;
10078;SDS011;5078;42.544;22.966;2023-07-08T05:15:49;16.48;;;14.98;;
10078;SDS011;5078;42.544;22.966;2023-07-08T05:18:16;17.60;;;15.52;;
10078;SDS011;5078;42.544;22.966;2023-07-08T05:20:42;17.40;;;15.70;;
10078;SDS011;5078;42.544;22.966;2023-07-08T05:23:18;19.67;;;17.45;;
10078;SDS011;5078;42.544;22.966;2023-07-08T05:25:44;17.88;;;16.38;;
10078;SDS011;5078;42.544;22.966;2023-07-08T05:28:11;18.67;;;17.08;;
10078;SDS011;5078;42.544;22.966;2023-07-08T05:30:39;17.80;;;16.30;;
10078;SDS011;5078;42.544;22.966;2023-07-08T05:33:06;17.00;;;15.48;;
10078;SDS011;5078;42.544;22.966;2023-07-08T05:35:33;16.60;;;15.13;;
10078;SDS011;5078;42.544;22.966;2023-07-08T05:38:00;18.25;;;15.70;;
10078;SDS011;5078;42.544;22.966;2023-07-08T05:40:28;17.67;;;16.00;;
10078;SDS011;5078;42.544;22.966;2023-07-08T05:42:55;15.98;;;14.48;;
10078;SDS011;5078;42.544;22.966;2023-07-08T05:45:21;16.75;;;15.13;;
10078;SDS011;5078;42.544;22.966;2023-07-08T05:47:48;16.00;;;14.40;;
10078;SDS011;5078;42.544;22.966;2023-07-08T05:50:15;15.45;;;13.93;;
10078;SDS011;5078;42.544;22.966;2023-07-08T05:52:42;15.35;;;13.85;;
10078;SDS011;5078;42.544;22.966;2023-07-08T05:55:08;15.55;;;14.10;;
10078;SDS011;5078;42.544;22.966;2023-07-08T05:57:37;13.02;;;11.70;;
10078;SDS011;5078;42.544;22.966;2023-07-08T06:00:04;15.32;;;13.80;;
10078;SDS011;5078;42.544;22.966;2023-07-08T06:02:32;18.98;;;12.93;;
10078;SDS011;5078;42.544;22.966;2023-07-08T06:04:58;12.60;;;11.10;;
10078;SDS011;5078;42.544;22.966;2023-07-08T06:07:25;10.75;;;9.75;;
10078;SDS011;5078;42.544;22.966;2023-07-08T06:09:52;11.50;;;10.45;;
10078;SDS011;5078;42.544;22.966;2023-07-08T06:12:21;10.90;;;9.13;;
10078;SDS011;5078;42.544;22.966;2023-07-08T06:14:49;10.23;;;9.23;;
10078;SDS011;5078;42.544;22.966;2023-07-08T06:17:16;10.07;;;9.18;;
10078;SDS011;5078;42.544;22.966;2023-07-08T06:19:43;11.98;;;9.27;;
10078;SDS011;5078;42.544;22.966;2023-07-08T06:22:10;11.02;;;9.98;;
10078;SDS011;5078;42.544;22.966;2023-07-08T06:24:37;12.88;;;11.50;;
10078;SDS011;5078;42.544;22.966;2023-07-08T06:27:04;15.07;;;13.27;;
10078;SDS011;5078;42.544;22.966;2023-07-08T06:29:32;14.07;;;12.60;;
10078;SDS011;5078;42.544;22.966;2023-07-08T06:32:01;15.90;;;12.02;;
10078;SDS011;5078;42.544;22.966;2023-07-08T06:34:28;13.90;;;11.63;;
10078;SDS011;5078;42.544;22.966;2023-07-08T06:36:55;14.27;;;12.73;;
10078;SDS011;5078;42.544;22.966;2023-07-08T06:39:22;14.93;;;13.15;;
10078;SDS011;5078;42.544;22.966;2023-07-08T06:41:49;13.05;;;11.75;;
10078;SDS011;5078;42.544;22.966;2023-07-08T06:44:15;11.93;;;10.60;;
10078;SDS011;5078;42.544;22.966;2023-07-08T06:46:42;12.32;;;9.45;;
10078;SDS011;5078;42.544;22.966;2023-07-08T06:49:11;9.77;;;8.82;;
10078;SDS011;5078;42.544;22.966;2023-07-08T06:51:38;9.93;;;8.93;;
10078;SDS011;5078;42.544;22.966;2023-07-08T06:54:05;10.05;;;9.02;;
10078;SDS011;5078;42.544;22.966;2023-07-08T06:56:36;9.70;;;8.65;;
10078;SDS011;5078;42.544;22.966;2023-07-08T06:59:03;13.73;;;8.57;;
10078;SDS011;5078;42.544;22.966;2023-07-08T07:01:31;9.93;;;9.02;;
10078;SDS011;5078;42.544;22.966;2023-07-08T07:03:57;12.48;;;9.57;;
10078;SDS011;5078;42.544;22.966;2023-07-08T07:06:27;9.85;;;8.85;;
10078;SDS011;5078;42.544;22.966;2023-07-08T07:08:54;11.93;;;10.82;;
10078;SDS011;5078;42.544;22.966;2023-07-08T07:11:21;9.75;;;8.85;;
10078;SDS011;5078;42.544;22.966;2023-07-08T07:13:48;10.00;;;8.57;;
10078;SDS011;5078;42.544;22.966;2023-07-08T07:16:14;10.32;;;8.38;;
10078;SDS011;5078;42.544;22.966;2023-07-08T07:18:41;9.55;;;8.55;;
10078;SDS011;5078;42.544;22.966;2023-07-08T07:21:08;12.63;;;8.13;;
10078;SDS011;5078;42.544;22.966;2023-07-08T07:23:36;8.30;;;7.60;;
10078;SDS011;5078;42.544;22.966;2023-07-08T07:26:03;8.50;;;7.70;;
10078;SDS011;5078;42.544;22.966;2023-07-08T07:28:30;8.80;;;8.00;;
10078;SDS011;5078;42.544;22.966;2023-07-08T07:30:57;8.65;;;7.85;;
10078;SDS011;5078;42.544;22.966;2023-07-08T07:33:25;8.85;;;7.75;;
10078;SDS011;5078;42.544;22.966;2023-07-08T07:35:51;9.68;;;7.78;;
10078;SDS011;5078;42.544;22.966;2023-07-08T07:38:18;8.50;;;6.90;;
10078;SDS011;5078;42.544;22.966;2023-07-08T07:40:46;8.20;;;7.40;;
10078;SDS011;5078;42.544;22.966;2023-07-08T07:43:13;10.60;;;7.75;;
10078;SDS011;5078;42.544;22.966;2023-07-08T07:45:40;7.60;;;6.90;;
10078;SDS011;5078;42.544;22.966;2023-07-08T07:48:07;7.85;;;7.15;;
10078;SDS011;5078;42.544;22.966;2023-07-08T07:50:33;7.85;;;7.05;;
10078;SDS011;5078;42.544;22.966;2023-07-08T07:53:00;7.10;;;6.50;;
10078;SDS011;5078;42.544;22.966;2023-07-08T07:55:27;7.30;;;6.60;;
10078;SDS011;5078;42.544;22.966;2023-07-08T07:57:55;7.70;;;7.00;;
10078;SDS011;5078;42.544;22.966;2023-07-08T08:00:22;7.57;;;6.88;;
10078;SDS011;5078;42.544;22.966;2023-07-08T08:02:49;7.38;;;6.28;;
10078;SDS011;5078;42.544;22.966;2023-07-08T08:05:15;7.07;;;6.38;;
10078;SDS011;5078;42.544;22.966;2023-07-08T08:07:43;8.40;;;6.95;;
10078;SDS011;5078;42.544;22.966;2023-07-08T08:10:10;8.65;;;6.80;;
10078;SDS011;5078;42.544;22.966;2023-07-08T08:12:37;7.28;;;6.50;;
10078;SDS011;5078;42.544;22.966;2023-07-08T08:15:05;6.32;;;5.65;;
10078;SDS011;5078;42.544;22.966;2023-07-08T08:17:33;6.43;;;5.57;;
10078;SDS011;5078;42.544;22.966;2023-07-08T08:20:00;6.10;;;5.50;;
10078;SDS011;5078;42.544;22.966;2023-07-08T08:22:27;6.03;;;5.53;;
10078;SDS011;5078;42.544;22.966;2023-07-08T08:24:54;5.78;;;5.20;;
10078;SDS011;5078;42.544;22.966;2023-07-08T08:27:20;6.75;;;5.93;;
10078;SDS011;5078;42.544;22.966;2023-07-08T08:29:47;6.82;;;5.10;;
10078;SDS011;5078;42.544;22.966;2023-07-08T08:32:15;5.50;;;4.93;;
10078;SDS011;5078;42.544;22.966;2023-07-08T08:34:42;6.07;;;5.47;;
10078;SDS011;5078;42.544;22.966;2023-07-08T08:37:11;5.95;;;5.22;;
10078;SDS011;5078;42.544;22.966;2023-07-08T08:39:38;5.80;;;5.00;;
10078;SDS011;5078;42.544;22.966;2023-07-08T08:42:06;5.78;;;5.28;;
10078;SDS011;5078;42.544;22.966;2023-07-08T08:44:42;7.65;;;5.22;;
10078;SDS011;5078;42.544;22.966;2023-07-08T08:47:12;5.40;;;4.90;;
10078;SDS011;5078;42.544;22.966;2023-07-08T08:49:50;5.25;;;4.75;;
10078;SDS011;5078;42.544;22.966;2023-07-08T08:52:23;5.20;;;4.53;;
10078;SDS011;5078;42.544;22.966;2023-07-08T08:54:50;5.57;;;5.00;;
10078;SDS011;5078;42.544;22.966;2023-07-08T08:57:32;5.60;;;4.75;;
10078;SDS011;5078;42.544;22.966;2023-07-08T09:00:04;5.00;;;4.50;;
10078;SDS011;5078;42.544;22.966;2023-07-08T09:02:37;4.65;;;4.25;;
10078;SDS011;5078;42.544;22.966;2023-07-08T09:05:08;7.10;;;4.80;;
10078;SDS011;5078;42.544;22.966;2023-07-08T09:07:41;5.05;;;4.55;;
10078;SDS011;5078;42.544;22.966;2023-07-08T09:10:36;4.97;;;4.43;;
10078;SDS011;5078;42.544;22.966;2023-07-08T09:13:12;5.10;;;4.70;;
10078;SDS011;5078;42.544;22.966;2023-07-08T09:15:47;5.43;;;4.55;;
10078;SDS011;5078;42.544;22.966;2023-07-08T09:18:19;5.70;;;4.20;;
10078;SDS011;5078;42.544;22.966;2023-07-08T09:20:52;6.20;;;5.63;;
10078;SDS011;5078;42.544;22.966;2023-07-08T09:23:22;4.85;;;4.30;;
10078;SDS011;5078;42.544;22.966;2023-07-08T09:25:54;6.63;;;5.07;;
10078;SDS011;5078;42.544;22.966;2023-07-08T09:28:35;4.97;;;4.30;;
10078;SDS011;5078;42.544;22.966;2023-07-08T09:31:05;5.65;;;4.85;;
10078;SDS011;5078;42.544;22.966;2023-07-08T09:33:36;6.45;;;4.78;;
10078;SDS011;5078;42.544;22.966;2023-07-08T09:36:15;14.70;;;10.95;;
10078;SDS011;5078;42.544;22.966;2023-07-08T09:38:46;5.13;;;4.13;;
10078;SDS011;5078;42.544;22.966;2023-07-08T09:41:14;4.57;;;4.15;;
10078;SDS011;5078;42.544;22.966;2023-07-08T09:44:02;4.47;;;4.07;;
10078;SDS011;5078;42.544;22.966;2023-07-08T09:46:35;5.63;;;3.92;;
10078;SDS011;5078;42.544;22.966;2023-07-08T09:51:48;4.53;;;4.13;;
10078;SDS011;5078;42.544;22.966;2023-07-08T09:54:16;4.43;;;4.03;;
10078;SDS011;5078;42.544;22.966;2023-07-08T09:56:49;5.65;;;4.10;;
10078;SDS011;5078;42.544;22.966;2023-07-08T09:59:21;4.30;;;3.90;;
10078;SDS011;5078;42.544;22.966;2023-07-08T10:02:00;5.07;;;4.50;;
10078;SDS011;5078;42.544;22.966;2023-07-08T10:04:29;4.95;;;4.38;;
10078;SDS011;5078;42.544;22.966;2023-07-08T10:06:58;5.45;;;3.83;;
10078;SDS011;5078;42.544;22.966;2023-07-08T10:09:26;5.70;;;3.90;;
10078;SDS011;5078;42.544;22.966;2023-07-08T10:11:54;4.28;;;3.80;;
10078;SDS011;5078;42.544;22.966;2023-07-08T10:14:27;4.07;;;3.75;;
10078;SDS011;5078;42.544;22.966;2023-07-08T10:16:59;4.75;;;3.40;;
10078;SDS011;5078;42.544;22.966;2023-07-08T10:19:26;3.83;;;3.53;;
10078;SDS011;5078;42.544;22.966;2023-07-08T10:22:02;5.57;;;3.78;;
10078;SDS011;5078;42.544;22.966;2023-07-08T10:24:47;6.88;;;4.05;;
10078;SDS011;5078;42.544;22.966;2023-07-08T10:27:27;5.07;;;4.57;;
10078;SDS011;5078;42.544;22.966;2023-07-08T10:30:02;6.20;;;4.30;;
10078;SDS011;5078;42.544;22.966;2023-07-08T10:32:43;4.40;;;4.00;;
10078;SDS011;5078;42.544;22.966;2023-07-08T10:35:18;5.65;;;4.28;;
10078;SDS011;5078;42.544;22.966;2023-07-08T10:37:56;5.40;;;4.82;;
10078;SDS011;5078;42.544;22.966;2023-07-08T10:40:38;5.75;;;4.32;;
10078;SDS011;5078;42.544;22.966;2023-07-08T10:43:17;4.70;;;4.10;;
10078;SDS011;5078;42.544;22.966;2023-07-08T10:45:52;5.20;;;4.63;;
10078;SDS011;5078;42.544;22.966;2023-07-08T10:48:34;7.35;;;4.68;;
10078;SDS011;5078;42.544;22.966;2023-07-08T10:51:13;5.13;;;4.15;;
10078;SDS011;5078;42.544;22.966;2023-07-08T10:53:58;6.20;;;4.32;;
10078;SDS011;5078;42.544;22.966;2023-07-08T10:56:50;4.82;;;4.32;;
10078;SDS011;5078;42.544;22.966;2023-07-08T11:05:11;4.95;;;4.50;;
10078;SDS011;5078;42.544;22.966;2023-07-08T11:07:50;4.93;;;4.43;;
10078;SDS011;5078;42.544;22.966;2023-07-08T11:10:29;4.65;;;4.30;;
10078;SDS011;5078;42.544;22.966;2023-07-08T11:13:03;5.25;;;4.68;;
10078;SDS011;5078;42.544;22.966;2023-07-08T11:15:35;4.88;;;4.47;;
10078;SDS011;5078;42.544;22.966;2023-07-08T11:18:09;4.97;;;4.47;;
10078;SDS011;5078;42.544;22.966;2023-07-08T11:20:42;4.63;;;4.22;;
10078;SDS011;5078;42.544;22.966;2023-07-08T11:23:14;5.03;;;4.53;;
10078;SDS011;5078;42.544;22.966;2023-07-08T11:25:50;5.40;;;4.90;;
10078;SDS011;5078;42.544;22.966;2023-07-08T11:28:21;4.93;;;4.53;;
10078;SDS011;5078;42.544;22.966;2023-07-08T11:30:50;4.95;;;4.50;;
10078;SDS011;5078;42.544;22.966;2023-07-08T11:33:19;7.05;;;5.13;;
10078;SDS011;5078;42.544;22.966;2023-07-08T11:35:51;7.30;;;4.50;;
10078;SDS011;5078;42.544;22.966;2023-07-08T11:38:20;5.68;;;4.50;;
10078;SDS011;5078;42.544;22.966;2023-07-08T11:40:50;5.30;;;4.80;;
10078;SDS011;5078;42.544;22.966;2023-07-08T11:43:20;5.68;;;4.50;;
10078;SDS011;5078;42.544;22.966;2023-07-08T11:45:49;4.60;;;4.20;;
10078;SDS011;5078;42.544;22.966;2023-07-08T11:48:17;5.88;;;4.38;;
10078;SDS011;5078;42.544;22.966;2023-07-08T11:50:48;5.03;;;4.63;;
10078;SDS011;5078;42.544;22.966;2023-07-08T11:53:31;5.78;;;4.28;;
10078;SDS011;5078;42.544;22.966;2023-07-08T11:56:04;4.18;;;3.78;;
10078;SDS011;5078;42.544;22.966;2023-07-08T11:58:57;9.82;;;7.85;;
10078;SDS011;5078;42.544;22.966;2023-07-08T12:01:32;5.43;;;4.90;;
10078;SDS011;5078;42.544;22.966;2023-07-08T12:04:16;6.35;;;4.95;;
10078;SDS011;5078;42.544;22.966;2023-07-08T12:06:48;4.55;;;4.15;;
10078;SDS011;5078;42.544;22.966;2023-07-08T12:09:26;4.80;;;4.40;;
10078;SDS011;5078;42.544;22.966;2023-07-08T12:11:57;4.82;;;4.32;;
10078;SDS011;5078;42.544;22.966;2023-07-08T12:14:26;5.07;;;4.35;;
10078;SDS011;5078;42.544;22.966;2023-07-08T12:16:54;7.07;;;4.22;;
10078;SDS011;5078;42.544;22.966;2023-07-08T12:19:21;5.43;;;4.07;;
10078;SDS011;5078;42.544;22.966;2023-07-08T12:21:51;4.30;;;3.90;;
10078;SDS011;5078;42.544;22.966;2023-07-08T12:24:18;4.45;;;4.05;;
10078;SDS011;5078;42.544;22.966;2023-07-08T12:26:50;4.20;;;3.80;;
10078;SDS011;5078;42.544;22.966;2023-07-08T12:29:18;4.78;;;4.22;;
10078;SDS011;5078;42.544;22.966;2023-07-08T12:31:45;5.05;;;4.20;;
10078;SDS011;5078;42.544;22.966;2023-07-08T12:34:12;5.22;;;4.47;;
10078;SDS011;5078;42.544;22.966;2023-07-08T12:36:41;4.28;;;3.88;;
10078;SDS011;5078;42.544;22.966;2023-07-08T12:39:10;4.10;;;3.80;;
10078;SDS011;5078;42.544;22.966;2023-07-08T12:41:40;4.95;;;3.90;;
10078;SDS011;5078;42.544;22.966;2023-07-08T12:44:14;4.63;;;3.90;;
10078;SDS011;5078;42.544;22.966;2023-07-08T12:46:46;4.43;;;4.03;;
10078;SDS011;5078;42.544;22.966;2023-07-08T12:49:14;4.40;;;4.00;;
10078;SDS011;5078;42.544;22.966;2023-07-08T12:51:42;5.35;;;4.18;;
10078;SDS011;5078;42.544;22.966;2023-07-08T12:54:10;4.40;;;4.00;;
10078;SDS011;5078;42.544;22.966;2023-07-08T12:56:38;4.28;;;3.88;;
10078;SDS011;5078;42.544;22.966;2023-07-08T12:59:06;4.25;;;3.85;;
10078;SDS011;5078;42.544;22.966;2023-07-08T13:01:34;4.57;;;4.18;;
10078;SDS011;5078;42.544;22.966;2023-07-08T13:04:05;4.30;;;3.90;;
10078;SDS011;5078;42.544;22.966;2023-07-08T13:06:36;5.85;;;4.35;;
10078;SDS011;5078;42.544;22.966;2023-07-08T13:09:06;5.25;;;4.00;;
10078;SDS011;5078;42.544;22.966;2023-07-08T13:11:45;9.48;;;3.80;;
10078;SDS011;5078;42.544;22.966;2023-07-08T13:14:12;4.50;;;3.80;;
10078;SDS011;5078;42.544;22.966;2023-07-08T13:16:41;4.55;;;3.70;;
10078;SDS011;5078;42.544;22.966;2023-07-08T13:19:09;4.50;;;4.10;;
10078;SDS011;5078;42.544;22.966;2023-07-08T13:21:38;4.93;;;4.10;;
10078;SDS011;5078;42.544;22.966;2023-07-08T13:24:07;5.93;;;3.80;;
10078;SDS011;5078;42.544;22.966;2023-07-08T13:26:35;75.05;;;68.03;;
10078;SDS011;5078;42.544;22.966;2023-07-08T13:29:04;4.80;;;4.30;;
10078;SDS011;5078;42.544;22.966;2023-07-08T13:31:37;4.93;;;4.00;;
10078;SDS011;5078;42.544;22.966;2023-07-08T13:34:06;4.57;;;4.05;;
10078;SDS011;5078;42.544;22.966;2023-07-08T13:36:36;8.23;;;4.70;;
10078;SDS011;5078;42.544;22.966;2023-07-08T13:39:06;4.00;;;3.60;;
10078;SDS011;5078;42.544;22.966;2023-07-08T13:41:34;5.82;;;3.67;;
10078;SDS011;5078;42.544;22.966;2023-07-08T13:44:05;5.00;;;3.80;;
10078;SDS011;5078;42.544;22.966;2023-07-08T13:46:34;3.90;;;3.50;;
10078;SDS011;5078;42.544;22.966;2023-07-08T13:49:07;4.50;;;3.75;;
10078;SDS011;5078;42.544;22.966;2023-07-08T13:51:39;4.20;;;3.80;;
10078;SDS011;5078;42.544;22.966;2023-07-08T13:54:13;5.43;;;3.72;;
10078;SDS011;5078;42.544;22.966;2023-07-08T13:56:45;4.07;;;3.67;;
10078;SDS011;5078;42.544;22.966;2023-07-08T13:59:15;5.65;;;4.28;;
10078;SDS011;5078;42.544;22.966;2023-07-08T14:01:44;4.38;;;3.97;;
10078;SDS011;5078;42.544;22.966;2023-07-08T14:04:12;5.22;;;3.90;;
10078;SDS011;5078;42.544;22.966;2023-07-08T14:06:43;4.40;;;3.72;;
10078;SDS011;5078;42.544;22.966;2023-07-08T14:09:11;5.35;;;4.18;;
10078;SDS011;5078;42.544;22.966;2023-07-08T14:11:40;4.88;;;4.38;;
10078;SDS011;5078;42.544;22.966;2023-07-08T14:14:07;5.03;;;4.05;;
10078;SDS011;5078;42.544;22.966;2023-07-08T14:16:36;5.72;;;4.57;;
10078;SDS011;5078;42.544;22.966;2023-07-08T14:19:10;11.85;;;10.38;;
10078;SDS011;5078;42.544;22.966;2023-07-08T14:21:40;4.65;;;4.22;;
10078;SDS011;5078;42.544;22.966;2023-07-08T14:24:10;5.32;;;4.53;;
10078;SDS011;5078;42.544;22.966;2023-07-08T14:26:38;5.95;;;4.03;;
10078;SDS011;5078;42.544;22.966;2023-07-08T14:29:07;5.82;;;5.22;;
10078;SDS011;5078;42.544;22.966;2023-07-08T14:31:34;5.13;;;4.63;;
10078;SDS011;5078;42.544;22.966;2023-07-08T14:34:03;5.05;;;3.90;;
10078;SDS011;5078;42.544;22.966;2023-07-08T14:36:32;4.65;;;3.90;;
10078;SDS011;5078;42.544;22.966;2023-07-08T14:38:59;4.53;;;4.13;;
10078;SDS011;5078;42.544;22.966;2023-07-08T14:41:28;6.55;;;4.00;;
10078;SDS011;5078;42.544;22.966;2023-07-08T14:43:54;5.50;;;4.50;;
10078;SDS011;5078;42.544;22.966;2023-07-08T14:46:21;6.50;;;4.32;;
10078;SDS011;5078;42.544;22.966;2023-07-08T14:48:48;4.88;;;4.03;;
10078;SDS011;5078;42.544;22.966;2023-07-08T14:51:14;5.70;;;4.43;;
10078;SDS011;5078;42.544;22.966;2023-07-08T14:53:41;4.63;;;4.07;;
10078;SDS011;5078;42.544;22.966;2023-07-08T14:56:11;6.22;;;4.13;;
10078;SDS011;5078;42.544;22.966;2023-07-08T14:58:43;5.85;;;4.13;;